sensor_id;sensor_type;location;lat;lon;timestamp;P1;durP1;ratioP1;P2;durP2;ratioP2
9496;SDS011;4786;51.270;4.456;2022-10-16T00:02:06;4.03;;;1.70;;
9496;SDS011;4786;51.270;4.456;2022-10-16T00:04:32;7.03;;;2.10;;
9496;SDS011;4786;51.270;4.456;2022-10-16T00:06:58;2.90;;;1.93;;
9496;SDS011;4786;51.270;4.456;2022-10-16T00:09:24;4.47;;;1.57;;
9496;SDS011;4786;51.270;4.456;2022-10-16T00:11:49;2.33;;;1.60;;
9496;SDS011;4786;51.270;4.456;2022-10-16T00:14:15;3.60;;;1.80;;
9496;SDS011;4786;51.270;4.456;2022-10-16T00:16:42;3.67;;;1.53;;
9496;SDS011;4786;51.270;4.456;2022-10-16T00:19:08;1.80;;;1.53;;
9496;SDS011;4786;51.270;4.456;2022-10-16T00:21:36;2.23;;;1.50;;
9496;SDS011;4786;51.270;4.456;2022-10-16T00:24:03;2.23;;;1.80;;
9496;SDS011;4786;51.270;4.456;2022-10-16T00:26:32;1.93;;;1.60;;
9496;SDS011;4786;51.270;4.456;2022-10-16T00:28:59;3.30;;;1.47;;
9496;SDS011;4786;51.270;4.456;2022-10-16T00:31:26;3.40;;;1.47;;
9496;SDS011;4786;51.270;4.456;2022-10-16T00:33:52;2.57;;;1.47;;
9496;SDS011;4786;51.270;4.456;2022-10-16T00:36:20;2.80;;;1.50;;
9496;SDS011;4786;51.270;4.456;2022-10-16T00:38:49;1.47;;;1.30;;
9496;SDS011;4786;51.270;4.456;2022-10-16T00:41:18;3.03;;;1.40;;
9496;SDS011;4786;51.270;4.456;2022-10-16T00:43:45;3.17;;;1.53;;
9496;SDS011;4786;51.270;4.456;2022-10-16T00:48:55;2.13;;;1.60;;
9496;SDS011;4786;51.270;4.456;2022-10-16T00:51:28;7.37;;;1.43;;
9496;SDS011;4786;51.270;4.456;2022-10-16T00:53:57;3.13;;;1.53;;
9496;SDS011;4786;51.270;4.456;2022-10-16T00:56:25;2.57;;;1.60;;
9496;SDS011;4786;51.270;4.456;2022-10-16T00:58:51;3.00;;;1.30;;
9496;SDS011;4786;51.270;4.456;2022-10-16T01:01:17;2.00;;;1.40;;
9496;SDS011;4786;51.270;4.456;2022-10-16T01:03:43;2.20;;;1.63;;
9496;SDS011;4786;51.270;4.456;2022-10-16T01:14:27;1.60;;;1.50;;
9496;SDS011;4786;51.270;4.456;2022-10-16T01:17:06;1.60;;;1.50;;
9496;SDS011;4786;51.270;4.456;2022-10-16T01:22:48;2.20;;;1.40;;
9496;SDS011;4786;51.270;4.456;2022-10-16T01:25:37;1.90;;;1.40;;
9496;SDS011;4786;51.270;4.456;2022-10-16T01:29:13;2.73;;;1.50;;
9496;SDS011;4786;51.270;4.456;2022-10-16T01:31:31;3.60;;;1.40;;
9496;SDS011;4786;51.270;4.456;2022-10-16T01:34:05;2.77;;;1.50;;
9496;SDS011;4786;51.270;4.456;2022-10-16T01:36:57;4.00;;;1.50;;
9496;SDS011;4786;51.270;4.456;2022-10-16T01:39:30;2.97;;;1.50;;
9496;SDS011;4786;51.270;4.456;2022-10-16T01:42:11;1.50;;;1.40;;
9496;SDS011;4786;51.270;4.456;2022-10-16T01:44:41;3.10;;;1.50;;
9496;SDS011;4786;51.270;4.456;2022-10-16T01:47:10;1.70;;;1.40;;
9496;SDS011;4786;51.270;4.456;2022-10-16T01:49:38;2.03;;;1.40;;
9496;SDS011;4786;51.270;4.456;2022-10-16T01:52:07;2.33;;;1.60;;
9496;SDS011;4786;51.270;4.456;2022-10-16T01:54:40;2.13;;;1.70;;
9496;SDS011;4786;51.270;4.456;2022-10-16T01:57:09;1.63;;;1.33;;
9496;SDS011;4786;51.270;4.456;2022-10-16T01:59:41;2.10;;;1.53;;
9496;SDS011;4786;51.270;4.456;2022-10-16T02:02:09;3.20;;;1.70;;
9496;SDS011;4786;51.270;4.456;2022-10-16T02:04:38;2.27;;;1.40;;
9496;SDS011;4786;51.270;4.456;2022-10-16T02:07:08;1.50;;;1.40;;
9496;SDS011;4786;51.270;4.456;2022-10-16T02:09:34;1.63;;;1.50;;
9496;SDS011;4786;51.270;4.456;2022-10-16T02:12:00;1.50;;;1.40;;
9496;SDS011;4786;51.270;4.456;2022-10-16T02:14:33;3.87;;;1.60;;
9496;SDS011;4786;51.270;4.456;2022-10-16T02:16:59;2.67;;;1.33;;
9496;SDS011;4786;51.270;4.456;2022-10-16T02:19:24;4.00;;;1.60;;
9496;SDS011;4786;51.270;4.456;2022-10-16T02:21:51;2.57;;;1.67;;
9496;SDS011;4786;51.270;4.456;2022-10-16T02:27:10;2.37;;;1.53;;
9496;SDS011;4786;51.270;4.456;2022-10-16T02:29:38;3.63;;;1.70;;
9496;SDS011;4786;51.270;4.456;2022-10-16T02:32:10;2.57;;;1.57;;
9496;SDS011;4786;51.270;4.456;2022-10-16T02:34:39;2.17;;;1.50;;
9496;SDS011;4786;51.270;4.456;2022-10-16T02:37:06;2.03;;;1.53;;
9496;SDS011;4786;51.270;4.456;2022-10-16T02:39:33;3.33;;;1.70;;
9496;SDS011;4786;51.270;4.456;2022-10-16T02:41:59;1.73;;;1.60;;
9496;SDS011;4786;51.270;4.456;2022-10-16T02:44:25;2.30;;;1.50;;
9496;SDS011;4786;51.270;4.456;2022-10-16T02:46:51;3.67;;;1.70;;
9496;SDS011;4786;51.270;4.456;2022-10-16T02:49:17;3.47;;;1.63;;
9496;SDS011;4786;51.270;4.456;2022-10-16T02:51:43;1.83;;;1.60;;
9496;SDS011;4786;51.270;4.456;2022-10-16T02:54:09;1.80;;;1.70;;
9496;SDS011;4786;51.270;4.456;2022-10-16T02:56:35;2.33;;;2.00;;
9496;SDS011;4786;51.270;4.456;2022-10-16T02:59:01;3.17;;;1.60;;
9496;SDS011;4786;51.270;4.456;2022-10-16T03:01:27;3.33;;;1.77;;
9496;SDS011;4786;51.270;4.456;2022-10-16T03:03:53;3.80;;;1.80;;
9496;SDS011;4786;51.270;4.456;2022-10-16T03:06:20;2.03;;;1.70;;
9496;SDS011;4786;51.270;4.456;2022-10-16T03:08:46;2.93;;;1.77;;
9496;SDS011;4786;51.270;4.456;2022-10-16T03:11:12;3.53;;;1.73;;
9496;SDS011;4786;51.270;4.456;2022-10-16T03:13:38;2.00;;;1.63;;
9496;SDS011;4786;51.270;4.456;2022-10-16T03:16:03;3.37;;;1.87;;
9496;SDS011;4786;51.270;4.456;2022-10-16T03:18:29;2.17;;;1.80;;
9496;SDS011;4786;51.270;4.456;2022-10-16T03:20:55;2.23;;;1.70;;
9496;SDS011;4786;51.270;4.456;2022-10-16T03:23:21;3.17;;;2.00;;
9496;SDS011;4786;51.270;4.456;2022-10-16T03:25:47;6.37;;;2.03;;
9496;SDS011;4786;51.270;4.456;2022-10-16T03:28:12;2.47;;;1.80;;
9496;SDS011;4786;51.270;4.456;2022-10-16T03:30:39;3.33;;;1.70;;
9496;SDS011;4786;51.270;4.456;2022-10-16T03:33:05;3.47;;;1.77;;
9496;SDS011;4786;51.270;4.456;2022-10-16T03:35:31;1.93;;;1.80;;
9496;SDS011;4786;51.270;4.456;2022-10-16T03:37:58;2.23;;;1.70;;
9496;SDS011;4786;51.270;4.456;2022-10-16T03:40:24;3.77;;;1.90;;
9496;SDS011;4786;51.270;4.456;2022-10-16T03:42:50;3.70;;;1.90;;
9496;SDS011;4786;51.270;4.456;2022-10-16T03:45:16;3.17;;;1.73;;
9496;SDS011;4786;51.270;4.456;2022-10-16T03:47:42;11.03;;;1.87;;
9496;SDS011;4786;51.270;4.456;2022-10-16T03:50:08;3.70;;;1.80;;
9496;SDS011;4786;51.270;4.456;2022-10-16T03:52:35;1.80;;;1.70;;
9496;SDS011;4786;51.270;4.456;2022-10-16T03:55:00;3.17;;;1.80;;
9496;SDS011;4786;51.270;4.456;2022-10-16T03:57:26;4.60;;;1.83;;
9496;SDS011;4786;51.270;4.456;2022-10-16T03:59:52;3.70;;;1.90;;
9496;SDS011;4786;51.270;4.456;2022-10-16T04:02:17;5.03;;;2.17;;
9496;SDS011;4786;51.270;4.456;2022-10-16T04:04:43;4.57;;;2.10;;
9496;SDS011;4786;51.270;4.456;2022-10-16T04:07:09;2.63;;;1.73;;
9496;SDS011;4786;51.270;4.456;2022-10-16T04:09:35;3.87;;;1.77;;
9496;SDS011;4786;51.270;4.456;2022-10-16T04:12:01;3.60;;;1.80;;
9496;SDS011;4786;51.270;4.456;2022-10-16T04:14:27;5.10;;;2.10;;
9496;SDS011;4786;51.270;4.456;2022-10-16T04:16:53;4.03;;;1.97;;
9496;SDS011;4786;51.270;4.456;2022-10-16T04:19:19;2.23;;;1.80;;
9496;SDS011;4786;51.270;4.456;2022-10-16T04:21:44;5.57;;;2.23;;
9496;SDS011;4786;51.270;4.456;2022-10-16T04:24:11;3.03;;;1.77;;
9496;SDS011;4786;51.270;4.456;2022-10-16T04:26:37;1.97;;;1.70;;
9496;SDS011;4786;51.270;4.456;2022-10-16T04:29:02;2.90;;;1.90;;
9496;SDS011;4786;51.270;4.456;2022-10-16T04:31:29;4.90;;;2.23;;
9496;SDS011;4786;51.270;4.456;2022-10-16T04:33:55;4.57;;;2.17;;
9496;SDS011;4786;51.270;4.456;2022-10-16T04:36:20;2.97;;;1.80;;
9496;SDS011;4786;51.270;4.456;2022-10-16T04:38:46;1.90;;;1.63;;
9496;SDS011;4786;51.270;4.456;2022-10-16T04:41:12;4.00;;;1.90;;
9496;SDS011;4786;51.270;4.456;2022-10-16T04:43:38;3.60;;;2.10;;
9496;SDS011;4786;51.270;4.456;2022-10-16T04:46:03;3.70;;;1.80;;
9496;SDS011;4786;51.270;4.456;2022-10-16T04:48:30;3.63;;;1.90;;
9496;SDS011;4786;51.270;4.456;2022-10-16T04:50:56;3.37;;;2.00;;
9496;SDS011;4786;51.270;4.456;2022-10-16T04:53:22;3.10;;;1.90;;
9496;SDS011;4786;51.270;4.456;2022-10-16T04:55:48;3.07;;;2.10;;
9496;SDS011;4786;51.270;4.456;2022-10-16T04:58:15;3.30;;;2.03;;
9496;SDS011;4786;51.270;4.456;2022-10-16T05:00:41;5.10;;;2.30;;
9496;SDS011;4786;51.270;4.456;2022-10-16T05:03:07;2.53;;;1.97;;
9496;SDS011;4786;51.270;4.456;2022-10-16T05:05:34;5.17;;;2.23;;
9496;SDS011;4786;51.270;4.456;2022-10-16T05:08:01;2.93;;;1.70;;
9496;SDS011;4786;51.270;4.456;2022-10-16T05:10:27;5.13;;;2.10;;
9496;SDS011;4786;51.270;4.456;2022-10-16T05:12:53;6.73;;;2.20;;
9496;SDS011;4786;51.270;4.456;2022-10-16T05:15:20;2.33;;;2.03;;
9496;SDS011;4786;51.270;4.456;2022-10-16T05:17:45;3.27;;;2.10;;
9496;SDS011;4786;51.270;4.456;2022-10-16T05:20:11;2.70;;;1.93;;
9496;SDS011;4786;51.270;4.456;2022-10-16T05:22:38;4.17;;;1.90;;
9496;SDS011;4786;51.270;4.456;2022-10-16T05:25:03;3.93;;;2.10;;
9496;SDS011;4786;51.270;4.456;2022-10-16T05:27:29;5.20;;;1.90;;
9496;SDS011;4786;51.270;4.456;2022-10-16T05:29:55;5.03;;;1.93;;
9496;SDS011;4786;51.270;4.456;2022-10-16T05:32:21;4.20;;;2.20;;
9496;SDS011;4786;51.270;4.456;2022-10-16T05:34:47;5.33;;;1.90;;
9496;SDS011;4786;51.270;4.456;2022-10-16T05:37:13;4.80;;;2.30;;
9496;SDS011;4786;51.270;4.456;2022-10-16T05:39:39;5.93;;;2.00;;
9496;SDS011;4786;51.270;4.456;2022-10-16T05:42:05;3.60;;;1.80;;
9496;SDS011;4786;51.270;4.456;2022-10-16T05:44:31;5.97;;;2.23;;
9496;SDS011;4786;51.270;4.456;2022-10-16T05:46:57;8.03;;;2.87;;
9496;SDS011;4786;51.270;4.456;2022-10-16T05:49:23;4.03;;;2.00;;
9496;SDS011;4786;51.270;4.456;2022-10-16T05:51:48;3.37;;;2.13;;
9496;SDS011;4786;51.270;4.456;2022-10-16T05:54:14;8.73;;;2.27;;
9496;SDS011;4786;51.270;4.456;2022-10-16T05:56:40;2.83;;;2.20;;
9496;SDS011;4786;51.270;4.456;2022-10-16T05:59:06;2.70;;;1.90;;
9496;SDS011;4786;51.270;4.456;2022-10-16T06:01:32;3.13;;;2.20;;
9496;SDS011;4786;51.270;4.456;2022-10-16T06:03:58;4.90;;;2.27;;
9496;SDS011;4786;51.270;4.456;2022-10-16T06:06:26;5.57;;;2.43;;
9496;SDS011;4786;51.270;4.456;2022-10-16T06:08:53;5.90;;;2.00;;
9496;SDS011;4786;51.270;4.456;2022-10-16T06:11:29;4.27;;;1.80;;
9496;SDS011;4786;51.270;4.456;2022-10-16T06:13:58;3.53;;;2.00;;
9496;SDS011;4786;51.270;4.456;2022-10-16T06:16:27;3.23;;;2.10;;
9496;SDS011;4786;51.270;4.456;2022-10-16T06:18:54;4.10;;;2.43;;
9496;SDS011;4786;51.270;4.456;2022-10-16T06:21:24;6.47;;;2.40;;
9496;SDS011;4786;51.270;4.456;2022-10-16T06:23:51;3.77;;;2.30;;
9496;SDS011;4786;51.270;4.456;2022-10-16T06:26:19;5.67;;;2.17;;
9496;SDS011;4786;51.270;4.456;2022-10-16T06:28:47;3.53;;;2.23;;
9496;SDS011;4786;51.270;4.456;2022-10-16T06:31:13;3.80;;;2.13;;
9496;SDS011;4786;51.270;4.456;2022-10-16T06:33:40;3.83;;;2.10;;
9496;SDS011;4786;51.270;4.456;2022-10-16T06:36:07;4.37;;;2.17;;
9496;SDS011;4786;51.270;4.456;2022-10-16T06:38:38;3.40;;;2.27;;
9496;SDS011;4786;51.270;4.456;2022-10-16T06:41:04;5.50;;;2.43;;
9496;SDS011;4786;51.270;4.456;2022-10-16T06:43:31;4.23;;;2.10;;
9496;SDS011;4786;51.270;4.456;2022-10-16T06:45:59;3.57;;;2.40;;
9496;SDS011;4786;51.270;4.456;2022-10-16T06:48:25;4.20;;;2.00;;
9496;SDS011;4786;51.270;4.456;2022-10-16T06:50:55;3.10;;;2.30;;
9496;SDS011;4786;51.270;4.456;2022-10-16T06:53:27;5.10;;;2.40;;
9496;SDS011;4786;51.270;4.456;2022-10-16T06:55:55;4.87;;;2.40;;
9496;SDS011;4786;51.270;4.456;2022-10-16T06:58:22;4.70;;;2.20;;
9496;SDS011;4786;51.270;4.456;2022-10-16T07:00:48;6.57;;;2.40;;
9496;SDS011;4786;51.270;4.456;2022-10-16T07:03:20;2.90;;;2.20;;
9496;SDS011;4786;51.270;4.456;2022-10-16T07:05:45;3.20;;;2.37;;
9496;SDS011;4786;51.270;4.456;2022-10-16T07:08:11;4.23;;;2.40;;
9496;SDS011;4786;51.270;4.456;2022-10-16T07:10:37;2.93;;;2.03;;
9496;SDS011;4786;51.270;4.456;2022-10-16T07:13:02;3.73;;;2.40;;
9496;SDS011;4786;51.270;4.456;2022-10-16T07:15:28;5.83;;;2.50;;
9496;SDS011;4786;51.270;4.456;2022-10-16T07:17:54;4.37;;;2.40;;
9496;SDS011;4786;51.270;4.456;2022-10-16T07:20:20;4.67;;;2.50;;
9496;SDS011;4786;51.270;4.456;2022-10-16T07:22:46;3.13;;;2.10;;
9496;SDS011;4786;51.270;4.456;2022-10-16T07:25:11;5.70;;;2.60;;
9496;SDS011;4786;51.270;4.456;2022-10-16T07:27:37;3.87;;;2.40;;
9496;SDS011;4786;51.270;4.456;2022-10-16T07:30:04;2.93;;;2.20;;
9496;SDS011;4786;51.270;4.456;2022-10-16T07:32:30;6.40;;;2.50;;
9496;SDS011;4786;51.270;4.456;2022-10-16T07:34:56;3.37;;;2.30;;
9496;SDS011;4786;51.270;4.456;2022-10-16T07:37:22;3.87;;;2.23;;
9496;SDS011;4786;51.270;4.456;2022-10-16T07:39:49;6.13;;;2.07;;
9496;SDS011;4786;51.270;4.456;2022-10-16T07:42:14;3.97;;;2.20;;
9496;SDS011;4786;51.270;4.456;2022-10-16T07:44:40;3.50;;;2.30;;
9496;SDS011;4786;51.270;4.456;2022-10-16T07:47:06;3.83;;;2.50;;
9496;SDS011;4786;51.270;4.456;2022-10-16T07:49:32;3.13;;;1.97;;
9496;SDS011;4786;51.270;4.456;2022-10-16T07:51:58;5.57;;;2.33;;
9496;SDS011;4786;51.270;4.456;2022-10-16T07:54:24;3.83;;;2.03;;
9496;SDS011;4786;51.270;4.456;2022-10-16T07:56:49;3.93;;;2.50;;
9496;SDS011;4786;51.270;4.456;2022-10-16T07:59:16;6.53;;;2.30;;
9496;SDS011;4786;51.270;4.456;2022-10-16T08:01:41;5.53;;;2.30;;
9496;SDS011;4786;51.270;4.456;2022-10-16T08:04:08;5.80;;;2.43;;
9496;SDS011;4786;51.270;4.456;2022-10-16T08:06:34;7.53;;;2.40;;
9496;SDS011;4786;51.270;4.456;2022-10-16T08:09:02;4.30;;;2.30;;
9496;SDS011;4786;51.270;4.456;2022-10-16T08:11:29;4.43;;;2.50;;
9496;SDS011;4786;51.270;4.456;2022-10-16T08:13:55;6.07;;;2.23;;
9496;SDS011;4786;51.270;4.456;2022-10-16T08:16:21;3.80;;;2.10;;
9496;SDS011;4786;51.270;4.456;2022-10-16T08:18:47;3.67;;;2.00;;
9496;SDS011;4786;51.270;4.456;2022-10-16T08:21:15;3.17;;;2.10;;
9496;SDS011;4786;51.270;4.456;2022-10-16T08:23:43;5.00;;;2.20;;
9496;SDS011;4786;51.270;4.456;2022-10-16T08:26:09;2.40;;;1.63;;
9496;SDS011;4786;51.270;4.456;2022-10-16T08:28:36;5.10;;;1.93;;
9496;SDS011;4786;51.270;4.456;2022-10-16T08:31:09;2.60;;;1.67;;
9496;SDS011;4786;51.270;4.456;2022-10-16T08:33:35;4.30;;;2.13;;
9496;SDS011;4786;51.270;4.456;2022-10-16T08:36:03;5.80;;;2.20;;
9496;SDS011;4786;51.270;4.456;2022-10-16T08:38:30;4.60;;;2.23;;
9496;SDS011;4786;51.270;4.456;2022-10-16T08:49:02;5.67;;;1.93;;
9496;SDS011;4786;51.270;4.456;2022-10-16T08:51:29;5.23;;;2.13;;
9496;SDS011;4786;51.270;4.456;2022-10-16T08:53:58;9.03;;;2.37;;
9496;SDS011;4786;51.270;4.456;2022-10-16T08:56:27;7.53;;;2.30;;
9496;SDS011;4786;51.270;4.456;2022-10-16T08:58:54;4.27;;;2.10;;
9496;SDS011;4786;51.270;4.456;2022-10-16T09:01:21;5.10;;;2.07;;
9496;SDS011;4786;51.270;4.456;2022-10-16T09:15:29;4.17;;;2.00;;
9496;SDS011;4786;51.270;4.456;2022-10-16T09:18:33;6.67;;;2.10;;
9496;SDS011;4786;51.270;4.456;2022-10-16T09:21:14;7.30;;;2.30;;
9496;SDS011;4786;51.270;4.456;2022-10-16T09:23:50;9.70;;;2.93;;
9496;SDS011;4786;51.270;4.456;2022-10-16T09:26:17;4.40;;;2.03;;
9496;SDS011;4786;51.270;4.456;2022-10-16T09:28:44;8.23;;;2.27;;
9496;SDS011;4786;51.270;4.456;2022-10-16T09:31:13;7.20;;;2.35;;
9496;SDS011;4786;51.270;4.456;2022-10-16T09:33:45;4.57;;;2.17;;
9496;SDS011;4786;51.270;4.456;2022-10-16T09:36:18;5.88;;;2.30;;
9496;SDS011;4786;51.270;4.456;2022-10-16T09:38:46;6.87;;;1.90;;
9496;SDS011;4786;51.270;4.456;2022-10-16T09:41:16;5.97;;;2.07;;
9496;SDS011;4786;51.270;4.456;2022-10-16T09:46:27;4.53;;;2.05;;
9496;SDS011;4786;51.270;4.456;2022-10-16T09:48:57;6.07;;;2.30;;
9496;SDS011;4786;51.270;4.456;2022-10-16T09:54:01;4.00;;;1.88;;
9496;SDS011;4786;51.270;4.456;2022-10-16T09:56:39;5.93;;;2.35;;
9496;SDS011;4786;51.270;4.456;2022-10-16T09:59:10;6.03;;;2.08;;
9496;SDS011;4786;51.270;4.456;2022-10-16T10:01:38;3.38;;;1.70;;
9496;SDS011;4786;51.270;4.456;2022-10-16T10:04:09;8.18;;;2.78;;
9496;SDS011;4786;51.270;4.456;2022-10-16T10:06:36;5.47;;;2.13;;
9496;SDS011;4786;51.270;4.456;2022-10-16T10:14:24;8.63;;;2.65;;
9496;SDS011;4786;51.270;4.456;2022-10-16T10:16:51;5.97;;;2.13;;
9496;SDS011;4786;51.270;4.456;2022-10-16T10:19:26;6.20;;;2.00;;
9496;SDS011;4786;51.270;4.456;2022-10-16T10:21:52;7.43;;;2.70;;
9496;SDS011;4786;51.270;4.456;2022-10-16T10:24:19;6.43;;;2.25;;
9496;SDS011;4786;51.270;4.456;2022-10-16T10:29:23;5.20;;;2.10;;
9496;SDS011;4786;51.270;4.456;2022-10-16T10:32:09;5.13;;;2.30;;
9496;SDS011;4786;51.270;4.456;2022-10-16T10:42:38;5.45;;;2.20;;
9496;SDS011;4786;51.270;4.456;2022-10-16T10:48:04;7.53;;;2.30;;
9496;SDS011;4786;51.270;4.456;2022-10-16T10:51:11;9.40;;;2.72;;
9496;SDS011;4786;51.270;4.456;2022-10-16T11:05:07;7.47;;;1.80;;
9496;SDS011;4786;51.270;4.456;2022-10-16T11:07:52;9.88;;;2.50;;
9496;SDS011;4786;51.270;4.456;2022-10-16T11:10:24;4.40;;;2.10;;
9496;SDS011;4786;51.270;4.456;2022-10-16T11:13:10;7.78;;;2.47;;
9496;SDS011;4786;51.270;4.456;2022-10-16T11:15:47;4.72;;;1.90;;
9496;SDS011;4786;51.270;4.456;2022-10-16T11:18:18;6.22;;;2.22;;
9496;SDS011;4786;51.270;4.456;2022-10-16T11:20:57;5.88;;;2.05;;
9496;SDS011;4786;51.270;4.456;2022-10-16T11:26:05;6.32;;;2.22;;
9496;SDS011;4786;51.270;4.456;2022-10-16T11:28:42;3.63;;;1.90;;
9496;SDS011;4786;51.270;4.456;2022-10-16T11:31:13;8.18;;;2.22;;
9496;SDS011;4786;51.270;4.456;2022-10-16T11:36:49;7.00;;;2.50;;
9496;SDS011;4786;51.270;4.456;2022-10-16T11:39:37;5.60;;;2.00;;
9496;SDS011;4786;51.270;4.456;2022-10-16T11:49:53;9.25;;;2.28;;
9496;SDS011;4786;51.270;4.456;2022-10-16T11:57:31;6.18;;;2.05;;
9496;SDS011;4786;51.270;4.456;2022-10-16T12:00:14;5.75;;;2.10;;
9496;SDS011;4786;51.270;4.456;2022-10-16T12:08:15;8.70;;;1.98;;
9496;SDS011;4786;51.270;4.456;2022-10-16T12:10:43;5.22;;;2.00;;
9496;SDS011;4786;51.270;4.456;2022-10-16T12:18:43;7.10;;;1.92;;
9496;SDS011;4786;51.270;4.456;2022-10-16T12:21:11;5.43;;;1.80;;
9496;SDS011;4786;51.270;4.456;2022-10-16T12:23:56;5.53;;;2.05;;
9496;SDS011;4786;51.270;4.456;2022-10-16T12:26:36;5.18;;;1.90;;
9496;SDS011;4786;51.270;4.456;2022-10-16T12:32:05;6.22;;;1.92;;
9496;SDS011;4786;51.270;4.456;2022-10-16T12:34:48;4.47;;;1.95;;
9496;SDS011;4786;51.270;4.456;2022-10-16T12:37:18;7.68;;;1.95;;
9496;SDS011;4786;51.270;4.456;2022-10-16T12:39:49;4.75;;;1.92;;
9496;SDS011;4786;51.270;4.456;2022-10-16T12:44:51;6.60;;;2.10;;
9496;SDS011;4786;51.270;4.456;2022-10-16T12:47:21;5.90;;;2.05;;
9496;SDS011;4786;51.270;4.456;2022-10-16T12:49:54;4.32;;;1.65;;
9496;SDS011;4786;51.270;4.456;2022-10-16T12:52:24;5.90;;;2.10;;
9496;SDS011;4786;51.270;4.456;2022-10-16T12:55:01;6.75;;;1.85;;
9496;SDS011;4786;51.270;4.456;2022-10-16T12:57:39;3.85;;;2.05;;
9496;SDS011;4786;51.270;4.456;2022-10-16T13:06:06;3.33;;;1.70;;
9496;SDS011;4786;51.270;4.456;2022-10-16T13:14:09;3.20;;;1.63;;
9496;SDS011;4786;51.270;4.456;2022-10-16T13:22:52;4.03;;;1.60;;
9496;SDS011;4786;51.270;4.456;2022-10-16T13:28:08;4.57;;;1.73;;
9496;SDS011;4786;51.270;4.456;2022-10-16T13:33:06;4.68;;;1.67;;
9496;SDS011;4786;51.270;4.456;2022-10-16T13:35:46;4.80;;;1.80;;
9496;SDS011;4786;51.270;4.456;2022-10-16T13:38:18;6.57;;;2.17;;
9496;SDS011;4786;51.270;4.456;2022-10-16T13:40:52;4.32;;;1.88;;
9496;SDS011;4786;51.270;4.456;2022-10-16T13:43:27;5.18;;;1.48;;
9496;SDS011;4786;51.270;4.456;2022-10-16T13:46:06;5.43;;;1.58;;
9496;SDS011;4786;51.270;4.456;2022-10-16T13:49:03;4.90;;;2.08;;
9496;SDS011;4786;51.270;4.456;2022-10-16T13:51:31;2.95;;;1.42;;
9496;SDS011;4786;51.270;4.456;2022-10-16T13:53:57;4.78;;;1.90;;
9496;SDS011;4786;51.270;4.456;2022-10-16T13:56:30;2.95;;;1.58;;
9496;SDS011;4786;51.270;4.456;2022-10-16T13:59:06;2.08;;;1.33;;
9496;SDS011;4786;51.270;4.456;2022-10-16T14:01:57;3.47;;;1.40;;
9496;SDS011;4786;51.270;4.456;2022-10-16T14:04:31;4.47;;;1.52;;
9496;SDS011;4786;51.270;4.456;2022-10-16T14:06:58;4.35;;;1.80;;
9496;SDS011;4786;51.270;4.456;2022-10-16T14:09:28;4.15;;;1.73;;
9496;SDS011;4786;51.270;4.456;2022-10-16T14:11:56;3.67;;;1.50;;
9496;SDS011;4786;51.270;4.456;2022-10-16T14:14:25;2.90;;;1.50;;
9496;SDS011;4786;51.270;4.456;2022-10-16T14:16:58;1.80;;;1.38;;
9496;SDS011;4786;51.270;4.456;2022-10-16T14:19:28;2.38;;;1.58;;
9496;SDS011;4786;51.270;4.456;2022-10-16T14:21:55;4.28;;;1.70;;
9496;SDS011;4786;51.270;4.456;2022-10-16T14:24:31;2.60;;;1.48;;
9496;SDS011;4786;51.270;4.456;2022-10-16T14:26:59;8.27;;;1.48;;
9496;SDS011;4786;51.270;4.456;2022-10-16T14:29:26;4.10;;;1.35;;
9496;SDS011;4786;51.270;4.456;2022-10-16T14:36:55;3.42;;;1.50;;
9496;SDS011;4786;51.270;4.456;2022-10-16T14:39:23;2.92;;;1.48;;
9496;SDS011;4786;51.270;4.456;2022-10-16T14:41:51;3.13;;;1.55;;
9496;SDS011;4786;51.270;4.456;2022-10-16T14:44:17;3.28;;;1.65;;
9496;SDS011;4786;51.270;4.456;2022-10-16T14:46:44;4.88;;;1.80;;
9496;SDS011;4786;51.270;4.456;2022-10-16T14:51:37;4.95;;;1.58;;
9496;SDS011;4786;51.270;4.456;2022-10-16T14:54:07;3.85;;;1.77;;
9496;SDS011;4786;51.270;4.456;2022-10-16T14:59:16;2.33;;;1.40;;
9496;SDS011;4786;51.270;4.456;2022-10-16T15:01:45;2.88;;;1.60;;
9496;SDS011;4786;51.270;4.456;2022-10-16T15:04:12;4.03;;;1.40;;
9496;SDS011;4786;51.270;4.456;2022-10-16T15:06:38;3.67;;;1.70;;
9496;SDS011;4786;51.270;4.456;2022-10-16T15:09:04;4.05;;;1.55;;
9496;SDS011;4786;51.270;4.456;2022-10-16T15:11:30;1.98;;;1.58;;
9496;SDS011;4786;51.270;4.456;2022-10-16T15:13:58;3.28;;;1.63;;
9496;SDS011;4786;51.270;4.456;2022-10-16T15:16:23;5.05;;;1.92;;
9496;SDS011;4786;51.270;4.456;2022-10-16T15:18:49;3.55;;;1.90;;
9496;SDS011;4786;51.270;4.456;2022-10-16T15:23:51;3.67;;;1.75;;
9496;SDS011;4786;51.270;4.456;2022-10-16T15:26:17;5.15;;;2.00;;
9496;SDS011;4786;51.270;4.456;2022-10-16T15:28:43;3.00;;;1.30;;
9496;SDS011;4786;51.270;4.456;2022-10-16T15:31:09;5.00;;;1.70;;
9496;SDS011;4786;51.270;4.456;2022-10-16T15:33:35;4.72;;;1.85;;
9496;SDS011;4786;51.270;4.456;2022-10-16T15:36:01;4.05;;;2.10;;
9496;SDS011;4786;51.270;4.456;2022-10-16T15:38:28;2.40;;;1.40;;
9496;SDS011;4786;51.270;4.456;2022-10-16T15:40:55;2.42;;;1.50;;
9496;SDS011;4786;51.270;4.456;2022-10-16T15:43:22;2.65;;;1.58;;
9496;SDS011;4786;51.270;4.456;2022-10-16T15:46:01;2.50;;;1.60;;
9496;SDS011;4786;51.270;4.456;2022-10-16T15:48:30;1.85;;;1.45;;
9496;SDS011;4786;51.270;4.456;2022-10-16T15:50:57;2.17;;;1.38;;
9496;SDS011;4786;51.270;4.456;2022-10-16T15:53:23;2.47;;;1.48;;
9496;SDS011;4786;51.270;4.456;2022-10-16T15:55:49;2.60;;;1.67;;
9496;SDS011;4786;51.270;4.456;2022-10-16T15:58:15;3.65;;;1.60;;
9496;SDS011;4786;51.270;4.456;2022-10-16T16:00:41;3.65;;;1.67;;
9496;SDS011;4786;51.270;4.456;2022-10-16T16:03:08;3.15;;;1.58;;
9496;SDS011;4786;51.270;4.456;2022-10-16T16:05:36;3.13;;;1.88;;
9496;SDS011;4786;51.270;4.456;2022-10-16T16:08:03;3.17;;;1.80;;
9496;SDS011;4786;51.270;4.456;2022-10-16T16:10:29;3.10;;;1.80;;
9496;SDS011;4786;51.270;4.456;2022-10-16T16:12:54;3.03;;;1.70;;
9496;SDS011;4786;51.270;4.456;2022-10-16T16:15:21;3.67;;;1.60;;
9496;SDS011;4786;51.270;4.456;2022-10-16T16:17:48;3.35;;;1.88;;
9496;SDS011;4786;51.270;4.456;2022-10-16T16:20:14;5.33;;;1.97;;
9496;SDS011;4786;51.270;4.456;2022-10-16T16:22:40;4.50;;;2.07;;
9496;SDS011;4786;51.270;4.456;2022-10-16T16:25:06;4.00;;;2.23;;
9496;SDS011;4786;51.270;4.456;2022-10-16T16:27:32;3.00;;;1.80;;
9496;SDS011;4786;51.270;4.456;2022-10-16T16:29:59;3.67;;;2.07;;
9496;SDS011;4786;51.270;4.456;2022-10-16T16:32:26;6.03;;;2.30;;
9496;SDS011;4786;51.270;4.456;2022-10-16T16:34:52;2.13;;;1.77;;
9496;SDS011;4786;51.270;4.456;2022-10-16T16:37:18;2.50;;;1.97;;
9496;SDS011;4786;51.270;4.456;2022-10-16T16:39:43;2.97;;;2.23;;
9496;SDS011;4786;51.270;4.456;2022-10-16T16:42:12;5.40;;;2.40;;
9496;SDS011;4786;51.270;4.456;2022-10-16T16:44:38;3.47;;;2.03;;
9496;SDS011;4786;51.270;4.456;2022-10-16T16:47:04;3.43;;;2.10;;
9496;SDS011;4786;51.270;4.456;2022-10-16T16:49:30;4.17;;;2.30;;
9496;SDS011;4786;51.270;4.456;2022-10-16T16:51:57;7.07;;;2.80;;
9496;SDS011;4786;51.270;4.456;2022-10-16T16:54:22;3.53;;;2.07;;
9496;SDS011;4786;51.270;4.456;2022-10-16T16:56:48;3.70;;;2.30;;
9496;SDS011;4786;51.270;4.456;2022-10-16T16:59:16;5.10;;;2.90;;
9496;SDS011;4786;51.270;4.456;2022-10-16T17:01:44;4.10;;;2.50;;
9496;SDS011;4786;51.270;4.456;2022-10-16T17:04:11;5.90;;;2.77;;
9496;SDS011;4786;51.270;4.456;2022-10-16T17:06:38;6.27;;;2.67;;
9496;SDS011;4786;51.270;4.456;2022-10-16T17:09:05;5.93;;;2.90;;
9496;SDS011;4786;51.270;4.456;2022-10-16T17:11:31;3.40;;;2.50;;
9496;SDS011;4786;51.270;4.456;2022-10-16T17:13:58;2.90;;;2.43;;
9496;SDS011;4786;51.270;4.456;2022-10-16T17:16:26;5.30;;;3.00;;
9496;SDS011;4786;51.270;4.456;2022-10-16T17:18:54;4.53;;;3.00;;
9496;SDS011;4786;51.270;4.456;2022-10-16T17:21:19;4.10;;;3.10;;
9496;SDS011;4786;51.270;4.456;2022-10-16T17:23:45;5.70;;;3.40;;
9496;SDS011;4786;51.270;4.456;2022-10-16T17:26:12;5.13;;;3.27;;
9496;SDS011;4786;51.270;4.456;2022-10-16T17:28:40;5.97;;;3.40;;
9496;SDS011;4786;51.270;4.456;2022-10-16T17:31:10;7.53;;;4.40;;
9496;SDS011;4786;51.270;4.456;2022-10-16T17:33:36;8.13;;;4.77;;
9496;SDS011;4786;51.270;4.456;2022-10-16T17:36:02;9.53;;;5.23;;
9496;SDS011;4786;51.270;4.456;2022-10-16T17:38:29;8.43;;;4.70;;
9496;SDS011;4786;51.270;4.456;2022-10-16T17:40:55;7.00;;;4.30;;
9496;SDS011;4786;51.270;4.456;2022-10-16T17:43:21;9.33;;;4.37;;
9496;SDS011;4786;51.270;4.456;2022-10-16T17:45:47;7.33;;;4.00;;
9496;SDS011;4786;51.270;4.456;2022-10-16T17:48:13;8.03;;;4.13;;